Time;durP1;ratioP1;P1;durP2;ratioP2;P2;SDS_P1;SDS_P2;PMS_P1;PMS_P2;Temp;Humidity;BMP_temperature;BMP_pressure;BME280_temperature;BME280_humidity;BME280_pressure;Samples;Min_cycle;Max_cycle;Signal;HPM_P1;HPM_P2
2021/12/02 00:01:57;;;;;;;7.72;3.25;;;;;;;0.08;100.00;100152.50;1664308;85;21083;-65
2021/12/02 00:04:26;;;;;;;5.95;3.40;;;;;;;0.08;100.00;100163.89;1618945;87;21353;-66
2021/12/02 00:06:53;;;;;;;7.45;3.50;;;;;;;0.05;100.00;100160.53;1641008;87;21071;-66
2021/12/02 00:09:20;;;;;;;7.75;3.45;;;;;;;-0.06;100.00;100169.03;1667269;86;21096;-66
2021/12/02 00:11:47;;;;;;;9.25;4.50;;;;;;;-0.16;100.00;100162.75;1660855;86;21067;-65
2021/12/02 00:14:15;;;;;;;13.18;5.00;;;;;;;-0.21;100.00;100167.84;1652788;86;21052;-65
2021/12/02 00:17:04;;;;;;;12.60;5.97;;;;;;;-0.20;100.00;100175.87;1660666;85;21059;-65
2021/12/02 00:22:05;;;;;;;30.25;10.32;;;;;;;-0.26;100.00;100190.64;1666690;84;21082;-66
2021/12/02 00:24:36;;;;;;;21.55;9.00;;;;;;;-0.33;100.00;100195.73;1663805;85;22406;-66
2021/12/02 00:27:07;;;;;;;19.27;8.25;;;;;;;-0.35;100.00;100198.69;1655757;86;21063;-66
2021/12/02 00:29:38;;;;;;;24.72;9.83;;;;;;;-0.36;100.00;100199.13;1643430;86;21069;-65
2021/12/02 00:32:09;;;;;;;22.42;9.70;;;;;;;-0.35;100.00;100193.63;1661073;85;21035;-65
2021/12/02 00:34:42;;;;;;;28.20;10.40;;;;;;;-0.36;100.00;100198.29;1670683;85;21112;-65
2021/12/02 00:37:09;;;;;;;19.98;8.53;;;;;;;-0.37;100.00;100196.16;1665522;85;21649;-66
2021/12/02 00:39:37;;;;;;;26.55;11.22;;;;;;;-0.42;100.00;100197.89;1667611;84;21101;-66
2021/12/02 00:42:09;;;;;;;25.40;10.53;;;;;;;-0.45;100.00;100201.25;1663528;85;21524;-66
2021/12/02 00:44:38;;;;;;;25.92;11.57;;;;;;;-0.46;100.00;100205.91;1670183;85;21063;-66
2021/12/02 00:47:04;;;;;;;29.32;12.70;;;;;;;-0.49;100.00;100205.06;1669977;85;21571;-65
2021/12/02 00:49:32;;;;;;;28.52;12.95;;;;;;;-0.52;100.00;100215.20;1669801;85;21099;-66
2021/12/02 00:52:01;;;;;;;28.15;11.12;;;;;;;-0.50;100.00;100213.08;1667829;85;21174;-66
2021/12/02 00:54:30;;;;;;;27.90;11.20;;;;;;;-0.51;100.00;100219.40;1646893;86;21143;-65
2021/12/02 00:56:58;;;;;;;24.75;10.53;;;;;;;-0.50;100.00;100218.14;1666349;84;21106;-66
2021/12/02 00:59:29;;;;;;;20.88;9.85;;;;;;;-0.53;100.00;100210.55;1646747;86;21580;-66
2021/12/02 01:01:59;;;;;;;20.67;9.57;;;;;;;-0.57;100.00;100205.52;1658414;85;21532;-65
2021/12/02 01:04:26;;;;;;;19.07;9.45;;;;;;;-0.64;100.00;100209.33;1662749;85;21113;-65
2021/12/02 01:06:54;;;;;;;23.45;9.98;;;;;;;-0.66;100.00;100208.92;1665461;84;21562;-65
2021/12/02 01:09:23;;;;;;;17.52;8.70;;;;;;;-0.68;100.00;100211.88;1671107;85;21083;-66
2021/12/02 01:11:50;;;;;;;18.87;8.60;;;;;;;-0.74;100.00;100219.05;1670934;85;21090;-65
2021/12/02 01:14:17;;;;;;;17.67;8.53;;;;;;;-0.77;100.00;100231.70;1662474;85;21601;-65
2021/12/02 01:16:45;;;;;;;16.30;8.70;;;;;;;-0.79;100.00;100229.61;1646421;85;21086;-66
2021/12/02 01:19:12;;;;;;;16.30;8.38;;;;;;;-0.78;100.00;100230.44;1666347;85;21569;-66
2021/12/02 01:21:43;;;;;;;15.00;7.97;;;;;;;-0.78;100.00;100235.49;1670064;85;21169;-66
2021/12/02 01:24:14;;;;;;;16.60;8.40;;;;;;;-0.82;100.00;100232.95;1663894;85;21094;-66
2021/12/02 01:26:47;;;;;;;17.60;9.15;;;;;;;-0.81;100.00;100238.88;1667557;86;21580;-66
2021/12/02 01:29:15;;;;;;;17.95;8.28;;;;;;;-0.83;100.00;100236.34;1665145;85;21071;-65
2021/12/02 01:31:42;;;;;;;15.93;8.55;;;;;;;-0.90;100.00;100237.62;1670861;85;21111;-65
2021/12/02 01:34:09;;;;;;;16.45;8.55;;;;;;;-0.94;100.00;100242.25;1662169;85;21519;-65
2021/12/02 01:36:40;;;;;;;16.30;8.55;;;;;;;-0.94;100.00;100238.47;1659977;85;21142;-66
2021/12/02 01:39:09;;;;;;;15.08;7.62;;;;;;;-1.02;100.00;100238.04;1639756;86;21055;-66
2021/12/02 01:41:48;;;;;;;15.18;7.97;;;;;;;-1.01;100.00;100238.91;1668680;85;21023;-65
2021/12/02 01:44:21;;;;;;;15.50;8.10;;;;;;;-1.01;100.00;100241.43;1663933;85;21064;-66
2021/12/02 01:46:52;;;;;;;17.17;8.25;;;;;;;-1.11;100.00;100239.75;1669940;85;21531;-65
2021/12/02 01:49:23;;;;;;;16.40;7.85;;;;;;;-1.14;100.00;100240.58;1666427;86;21049;-66
2021/12/02 01:51:55;;;;;;;13.60;7.05;;;;;;;-1.10;100.00;100254.05;1661107;86;21060;-66
2021/12/02 01:54:27;;;;;;;15.38;8.43;;;;;;;-1.11;100.00;100257.02;1664971;85;21967;-65
2021/12/02 01:57:10;;;;;;;17.30;8.88;;;;;;;-1.15;100.00;100255.33;1668215;85;21066;-66
2021/12/02 01:59:38;;;;;;;15.55;9.00;;;;;;;-1.14;100.00;100253.20;1668864;84;21189;-65
2021/12/02 02:02:09;;;;;;;17.98;8.75;;;;;;;-1.28;100.00;100243.13;1663253;85;21145;-65
2021/12/02 02:04:37;;;;;;;14.40;8.38;;;;;;;-1.34;100.00;100246.05;1665288;85;21067;-65
2021/12/02 02:07:15;;;;;;;17.12;8.25;;;;;;;-1.41;100.00;100246.05;1665680;86;21059;-65
2021/12/02 02:09:41;;;;;;;16.35;7.90;;;;;;;-1.48;100.00;100247.30;1666109;85;21121;-65
2021/12/02 02:12:11;;;;;;;15.95;7.55;;;;;;;-1.48;100.00;100249.43;1657426;85;21056;-65
2021/12/02 02:14:40;;;;;;;14.78;6.83;;;;;;;-1.47;100.00;100253.63;1665493;85;21063;-65
2021/12/02 02:17:24;;;;;;;12.93;7.12;;;;;;;-1.47;100.00;100252.36;1661580;86;21020;-66
2021/12/02 02:19:43;;;;;;;13.58;7.67;;;;;;;-1.47;100.00;100256.58;1666830;85;21118;-66
2021/12/02 02:22:12;;;;;;;11.60;6.70;;;;;;;-1.45;100.00;100258.25;1656603;85;21123;-66
2021/12/02 02:24:38;;;;;;;13.28;7.20;;;;;;;-1.46;100.00;100259.51;1669389;85;21025;-66
2021/12/02 02:27:06;;;;;;;13.43;6.67;;;;;;;-1.48;100.00;100262.05;1668595;84;21505;-65
2021/12/02 02:29:32;;;;;;;12.55;7.28;;;;;;;-1.45;100.00;100264.99;1669037;85;21496;-65
2021/12/02 02:31:59;;;;;;;14.15;7.65;;;;;;;-1.47;100.00;100263.72;1667976;85;21015;-65
2021/12/02 02:34:26;;;;;;;14.50;7.70;;;;;;;-1.47;100.00;100262.89;1670171;86;21057;-65
2021/12/02 02:36:59;;;;;;;30.10;11.25;;;;;;;-1.49;100.00;100273.41;1664080;86;21084;-65
2021/12/02 02:39:27;;;;;;;25.70;9.40;;;;;;;-1.52;100.00;100269.59;1667172;85;21042;-65
2021/12/02 02:41:57;;;;;;;17.25;7.58;;;;;;;-1.62;100.00;100268.77;1663773;85;21535;-65
2021/12/02 02:44:25;;;;;;;21.40;8.75;;;;;;;-1.66;100.00;100267.91;1658457;86;21079;-65
2021/12/02 02:46:53;;;;;;;20.52;8.20;;;;;;;-1.65;100.00;100268.74;1658300;86;21086;-66
2021/12/02 02:49:20;;;;;;;12.13;6.53;;;;;;;-1.67;100.00;100259.91;1664766;86;21074;-66
2021/12/02 02:51:48;;;;;;;13.08;6.80;;;;;;;-1.68;100.00;100254.45;1662627;86;21128;-66
2021/12/02 02:54:16;;;;;;;10.35;6.05;;;;;;;-1.69;100.00;100254.01;1666190;85;21108;-65
2021/12/02 02:56:54;;;;;;;9.13;6.10;;;;;;;-1.71;100.00;100253.16;1670807;85;21011;-66
2021/12/02 02:59:41;;;;;;;14.70;6.50;;;;;;;-1.72;100.00;100246.87;1638633;85;21126;-65
2021/12/02 03:02:26;;;;;;;11.13;6.47;;;;;;;-1.76;100.00;100251.06;1667520;85;21165;-65
2021/12/02 03:04:56;;;;;;;12.82;6.40;;;;;;;-1.83;100.00;100247.66;1658061;86;21024;-65
2021/12/02 03:07:38;;;;;;;10.78;6.40;;;;;;;-1.83;100.00;100242.62;1663050;85;21111;-66
2021/12/02 03:10:12;;;;;;;10.77;6.17;;;;;;;-1.82;100.00;100243.48;1658903;85;21067;-65
2021/12/02 03:12:39;;;;;;;15.35;7.15;;;;;;;-1.79;100.00;100243.91;1653618;86;21090;-66
2021/12/02 03:17:34;;;;;;;11.40;6.67;;;;;;;-1.81;100.00;100246.41;1663995;86;21064;-65
2021/12/02 03:20:02;;;;;;;10.90;6.22;;;;;;;-1.75;100.00;100253.16;1670896;84;21586;-66
2021/12/02 03:22:29;;;;;;;14.53;6.93;;;;;;;-1.81;100.00;100242.62;1666618;84;21609;-65
2021/12/02 03:24:56;;;;;;;12.40;6.80;;;;;;;-1.84;100.00;100252.73;1659506;86;21078;-66
2021/12/02 03:27:24;;;;;;;11.80;7.20;;;;;;;-1.94;100.00;100261.11;1664609;86;21063;-65
2021/12/02 03:29:50;;;;;;;14.23;7.73;;;;;;;-1.91;100.00;100259.84;1662705;84;21060;-65
2021/12/02 03:32:17;;;;;;;11.83;7.13;;;;;;;-1.99;100.00;100264.03;1665569;85;21096;-65
2021/12/02 03:34:45;;;;;;;12.70;7.05;;;;;;;-2.02;100.00;100280.00;1668305;85;21118;-65
2021/12/02 03:37:12;;;;;;;15.97;8.33;;;;;;;-2.04;100.00;100282.94;1662186;86;21090;-66
2021/12/02 03:39:39;;;;;;;13.27;7.37;;;;;;;-2.16;100.00;100283.72;1660839;86;21134;-66
2021/12/02 03:42:06;;;;;;;18.10;8.20;;;;;;;-2.20;100.00;100278.25;1664550;86;21090;-65
2021/12/02 03:44:33;;;;;;;16.37;7.93;;;;;;;-2.26;100.00;100287.05;1671061;85;21074;-65
2021/12/02 03:47:01;;;;;;;17.00;8.30;;;;;;;-2.30;100.00;100287.86;1666806;85;21059;-65
2021/12/02 03:49:29;;;;;;;18.10;7.97;;;;;;;-2.38;100.00;100294.13;1669172;85;21062;-66
2021/12/02 03:51:56;;;;;;;16.23;7.67;;;;;;;-2.43;100.00;100302.93;1661561;85;21563;-66
2021/12/02 03:54:23;;;;;;;15.23;7.27;;;;;;;-2.42;100.00;100307.12;1666661;85;21512;-65
2021/12/02 03:56:50;;;;;;;15.13;7.37;;;;;;;-2.39;100.00;100302.53;1664430;85;21119;-66
2021/12/02 03:59:17;;;;;;;13.43;7.30;;;;;;;-2.37;100.00;100294.95;1669543;85;21602;-66
2021/12/02 04:01:44;;;;;;;13.00;6.95;;;;;;;-2.37;100.00;100292.44;1669521;86;21057;-66
2021/12/02 04:04:12;;;;;;;10.40;6.30;;;;;;;-2.36;100.00;100292.45;1660735;85;21554;-66
2021/12/02 04:06:40;;;;;;;14.67;7.07;;;;;;;-2.32;100.00;100295.84;1669039;85;21034;-65
2021/12/02 04:09:18;;;;;;;15.47;7.60;;;;;;;-2.28;100.00;100299.64;1661599;85;21122;-66
2021/12/02 04:12:09;;;;;;;12.40;7.33;;;;;;;-2.27;100.00;100297.95;1658367;86;21567;-65
2021/12/02 04:14:17;;;;;;;13.67;7.90;;;;;;;-2.23;100.00;100298.00;1652617;85;21056;-66
2021/12/02 04:16:40;;;;;;;12.50;7.20;;;;;;;-2.19;100.00;100294.21;1664444;85;21149;-66
2021/12/02 04:19:10;;;;;;;13.17;7.63;;;;;;;-2.19;100.00;100301.77;1670354;85;21106;-65
2021/12/02 04:21:36;;;;;;;18.00;10.30;;;;;;;-2.17;100.00;100307.67;1657964;85;21619;-66
2021/12/02 04:24:05;;;;;;;19.90;11.00;;;;;;;-2.19;100.00;100300.09;1659007;86;21129;-66
2021/12/02 04:26:31;;;;;;;25.80;16.17;;;;;;;-2.19;100.00;100294.21;1662692;86;21586;-66
2021/12/02 04:28:58;;;;;;;22.80;15.40;;;;;;;-2.24;100.00;100295.45;1670968;85;21558;-66
2021/12/02 04:31:25;;;;;;;20.90;13.20;;;;;;;-2.18;100.00;100297.17;1660143;86;21107;-65
2021/12/02 04:33:52;;;;;;;18.57;12.33;;;;;;;-2.15;100.00;100304.34;1655518;86;21130;-66
2021/12/02 04:36:19;;;;;;;18.20;10.90;;;;;;;-2.08;100.00;100314.03;1664291;86;21127;-66
2021/12/02 04:38:46;;;;;;;18.43;11.13;;;;;;;-2.01;100.00;100315.72;1664663;85;21626;-66
2021/12/02 04:41:14;;;;;;;19.73;10.60;;;;;;;-2.00;100.00;100317.42;1663848;86;21047;-66
2021/12/02 04:43:41;;;;;;;17.83;10.27;;;;;;;-2.03;100.00;100313.61;1664656;86;21586;-66
2021/12/02 04:46:07;;;;;;;15.50;10.20;;;;;;;-2.08;100.00;100311.50;1663004;85;21082;-66
2021/12/02 04:48:34;;;;;;;19.37;10.93;;;;;;;-2.11;100.00;100317.78;1660255;86;21562;-66
2021/12/02 04:51:01;;;;;;;18.33;10.93;;;;;;;-2.16;100.00;100319.03;1662019;85;21058;-66
2021/12/02 04:53:28;;;;;;;16.20;10.37;;;;;;;-2.16;100.00;100319.03;1666033;86;21031;-66
2021/12/02 04:55:55;;;;;;;20.27;12.70;;;;;;;-2.14;100.00;100316.09;1661317;86;21538;-65
2021/12/02 04:58:22;;;;;;;23.43;13.90;;;;;;;-2.09;100.00;100313.59;1661909;86;21109;-66
2021/12/02 05:00:51;;;;;;;21.67;13.27;;;;;;;-2.05;100.00;100302.67;1666727;85;21051;-66
2021/12/02 05:03:18;;;;;;;22.67;13.00;;;;;;;-2.02;100.00;100307.75;1661671;86;21590;-66
2021/12/02 05:05:46;;;;;;;19.90;11.90;;;;;;;-1.94;100.00;100310.31;1657713;86;21083;-65
2021/12/02 05:08:13;;;;;;;21.00;12.03;;;;;;;-1.93;100.00;100319.55;1635419;87;21081;-66
2021/12/02 05:10:39;;;;;;;18.60;10.53;;;;;;;-1.89;100.00;100324.59;1635375;87;21524;-66
2021/12/02 05:13:06;;;;;;;17.07;10.03;;;;;;;-1.86;100.00;100320.84;1640703;87;21116;-66
2021/12/02 05:15:33;;;;;;;20.40;11.33;;;;;;;-1.80;100.00;100306.15;1637233;87;21111;-66
2021/12/02 05:18:00;;;;;;;22.20;11.53;;;;;;;-1.76;100.00;100314.55;1636105;87;21030;-66
2021/12/02 05:20:27;;;;;;;26.43;14.87;;;;;;;-1.69;100.00;100313.31;1639641;87;21109;-66
2021/12/02 05:22:53;;;;;;;24.63;15.25;;;;;;;-1.58;100.00;100320.06;1638377;87;21170;-66
2021/12/02 05:25:20;;;;;;;31.80;19.05;;;;;;;-1.51;100.00;100317.56;1636440;87;21311;-66
2021/12/02 05:27:48;;;;;;;23.30;14.87;;;;;;;-1.44;100.00;100318.41;1638664;87;21031;-66
2021/12/02 05:30:15;;;;;;;22.13;14.67;;;;;;;-1.36;100.00;100316.75;1636100;87;21585;-66
2021/12/02 05:32:42;;;;;;;21.90;13.93;;;;;;;-1.28;100.00;100320.16;1636705;87;21090;-66
2021/12/02 05:35:10;;;;;;;24.18;15.95;;;;;;;-1.18;100.00;100315.09;1635772;87;21104;-66
2021/12/02 05:37:37;;;;;;;25.25;16.35;;;;;;;-1.17;100.00;100313.84;1635499;87;21110;-66
2021/12/02 05:40:05;;;;;;;25.32;15.83;;;;;;;-1.08;100.00;100316.78;1641250;87;21719;-66
2021/12/02 05:42:33;;;;;;;22.63;14.70;;;;;;;-0.99;100.00;100320.98;1640977;86;21117;-66
2021/12/02 05:44:59;;;;;;;23.85;14.98;;;;;;;-0.87;100.00;100328.59;1634658;87;21112;-66
2021/12/02 05:47:26;;;;;;;21.20;13.05;;;;;;;-0.73;100.00;100336.14;1637066;87;21090;-66
2021/12/02 05:49:53;;;;;;;16.30;9.73;;;;;;;-0.58;100.00;100342.89;1634926;87;21538;-66
2021/12/02 05:52:20;;;;;;;18.10;9.38;;;;;;;-0.51;100.00;100353.41;1629403;87;21053;-66
2021/12/02 05:54:47;;;;;;;15.43;8.43;;;;;;;-0.39;100.00;100359.70;1613848;87;21074;-66
2021/12/02 05:57:14;;;;;;;14.63;8.15;;;;;;;-0.30;100.00;100355.08;1634243;86;21076;-66
2021/12/02 05:59:40;;;;;;;15.53;8.93;;;;;;;-0.19;100.00;100351.25;1614953;86;21132;-67
2021/12/02 06:02:08;;;;;;;16.17;8.85;;;;;;;-0.20;100.00;100350.41;1612152;87;21136;-67
2021/12/02 06:04:38;;;;;;;13.13;8.55;;;;;;;-0.19;100.00;100348.72;1628508;87;21079;-67
2021/12/02 06:07:05;;;;;;;14.23;8.55;;;;;;;-0.09;100.00;100340.25;1617145;87;21088;-66
2021/12/02 06:09:32;;;;;;;13.50;8.48;;;;;;;-0.03;100.00;100344.86;1628988;87;21540;-66
2021/12/02 06:12:00;;;;;;;14.95;9.30;;;;;;;0.06;100.00;100352.00;1600737;87;21555;-67
2021/12/02 06:14:27;;;;;;;14.10;9.03;;;;;;;0.14;100.00;100360.01;1620346;87;21063;-66
2021/12/02 06:16:53;;;;;;;13.70;8.70;;;;;;;0.19;100.00;100369.67;1630005;87;21570;-67
2021/12/02 06:19:20;;;;;;;15.85;8.83;;;;;;;0.24;100.00;100370.91;1623063;87;21618;-67
2021/12/02 06:21:50;;;;;;;15.23;8.45;;;;;;;0.33;100.00;100370.89;1616553;87;21633;-67
2021/12/02 06:24:20;;;;;;;14.40;9.23;;;;;;;0.39;100.00;100375.09;1657138;85;21116;-67
2021/12/02 06:26:46;;;;;;;14.75;8.65;;;;;;;0.38;100.00;100387.31;1649980;86;21043;-66
2021/12/02 06:29:13;;;;;;;14.93;8.33;;;;;;;0.47;100.00;100373.80;1664133;86;21039;-66
2021/12/02 06:31:39;;;;;;;13.18;8.03;;;;;;;0.49;100.00;100377.16;1655171;85;21486;-67
2021/12/02 06:34:07;;;;;;;13.22;8.40;;;;;;;0.50;100.00;100380.93;1662807;85;21511;-66
2021/12/02 06:36:36;;;;;;;17.82;10.05;;;;;;;0.54;100.00;100382.59;1649029;85;21009;-66
2021/12/02 06:39:06;;;;;;;17.80;10.43;;;;;;;0.58;100.00;100384.27;1655887;85;21550;-66
2021/12/02 06:41:35;;;;;;;21.00;12.25;;;;;;;0.67;100.00;100388.86;1658144;86;21109;-67
2021/12/02 06:44:01;;;;;;;17.60;9.10;;;;;;;0.68;100.00;100391.83;1607661;88;21058;-67
2021/12/02 06:46:29;;;;;;;13.95;8.10;;;;;;;0.73;100.00;100381.23;1648835;84;21110;-67
2021/12/02 06:48:58;;;;;;;15.08;8.35;;;;;;;0.83;100.00;100380.75;1649449;86;21529;-67
2021/12/02 06:51:24;;;;;;;16.30;8.83;;;;;;;0.91;100.00;100375.21;1649680;86;21053;-66
2021/12/02 06:53:52;;;;;;;15.70;9.33;;;;;;;1.02;100.00;100387.83;1659583;85;21072;-66
2021/12/02 06:56:18;;;;;;;12.73;8.05;;;;;;;1.10;100.00;100391.16;1659861;85;21045;-67
2021/12/02 06:58:45;;;;;;;14.50;8.35;;;;;;;1.21;100.00;100385.56;1632346;86;21085;-67
2021/12/02 07:01:12;;;;;;;14.95;9.03;;;;;;;1.29;100.00;100395.22;1622526;87;21031;-67
2021/12/02 07:03:39;;;;;;;14.60;8.55;;;;;;;1.46;100.00;100387.89;1625728;87;20996;-66
2021/12/02 07:06:05;;;;;;;16.75;9.78;;;;;;;1.60;100.00;100383.53;1626605;87;21547;-67
2021/12/02 07:08:33;;;;;;;16.75;9.70;;;;;;;1.78;100.00;100393.54;1628089;87;21102;-67
2021/12/02 07:11:00;;;;;;;16.02;9.85;;;;;;;1.93;100.00;100391.70;1640882;87;21060;-66
2021/12/02 07:13:31;;;;;;;18.95;10.10;;;;;;;2.05;100.00;100385.22;1624579;87;21063;-66
2021/12/02 07:15:59;;;;;;;18.23;10.35;;;;;;;2.13;100.00;100388.52;1620424;87;21095;-67
2021/12/02 07:18:26;;;;;;;17.95;10.60;;;;;;;2.15;100.00;100382.98;1610313;89;21130;-66
2021/12/02 07:20:53;;;;;;;21.68;12.33;;;;;;;2.23;100.00;100384.58;1608097;88;21116;-66
2021/12/02 07:23:22;;;;;;;20.05;11.88;;;;;;;2.30;100.00;100385.77;1610970;87;21591;-67
2021/12/02 07:25:50;;;;;;;21.52;12.63;;;;;;;2.35;100.00;100385.70;1607249;88;21127;-66
2021/12/02 07:28:19;;;;;;;23.98;13.25;;;;;;;2.44;100.00;100385.59;1622687;87;21079;-66
2021/12/02 07:30:52;;;;;;;27.48;16.82;;;;;;;2.56;100.00;100392.23;1623423;87;21063;-66
2021/12/02 07:33:20;;;;;;;28.15;16.05;;;;;;;2.63;100.00;100378.56;1637513;87;21055;-66
2021/12/02 07:35:48;;;;;;;27.40;16.05;;;;;;;2.76;100.00;100394.51;1642337;86;21035;-66
2021/12/02 07:38:16;;;;;;;29.05;16.95;;;;;;;2.91;100.00;100398.53;1639272;86;21173;-66
2021/12/02 07:40:43;;;;;;;29.30;16.67;;;;;;;3.10;100.00;100406.72;1640735;86;21086;-67
2021/12/02 07:43:09;;;;;;;38.78;19.45;;;;;;;3.23;100.00;100400.59;1641821;86;21113;-67
2021/12/02 07:45:36;;;;;;;31.30;18.32;;;;;;;3.33;100.00;100396.20;1636304;86;21119;-66
2021/12/02 07:48:06;;;;;;;33.60;20.00;;;;;;;3.40;100.00;100398.59;1624380;87;21065;-67
2021/12/02 07:50:36;;;;;;;37.23;20.25;;;;;;;3.73;100.00;100403.14;1624325;87;21074;-67
2021/12/02 07:53:08;;;;;;;37.88;20.57;;;;;;;3.73;100.00;100403.14;1625929;87;21596;-66
2021/12/02 07:55:40;;;;;;;36.03;20.60;;;;;;;3.88;100.00;100407.98;1635612;86;21559;-67
2021/12/02 07:58:10;;;;;;;36.15;20.45;;;;;;;4.02;100.00;100405.18;1624810;87;21004;-67
2021/12/02 08:00:38;;;;;;;31.07;18.85;;;;;;;4.17;100.00;100406.14;1621153;87;21102;-66
2021/12/02 08:03:09;;;;;;;32.10;18.95;;;;;;;4.23;100.00;100405.64;1650779;85;21566;-66
2021/12/02 08:05:37;;;;;;;30.92;17.92;;;;;;;4.32;100.00;100392.70;1627065;86;21574;-67
2021/12/02 08:08:04;;;;;;;34.48;19.67;;;;;;;4.45;100.00;100387.77;1613329;88;21031;-66
2021/12/02 08:10:31;;;;;;;32.55;19.40;;;;;;;4.54;100.00;100378.67;1618156;87;21490;-66
2021/12/02 08:13:01;;;;;;;34.58;20.72;;;;;;;4.63;100.00;100383.16;1634076;86;21039;-67
2021/12/02 08:15:30;;;;;;;32.05;19.77;;;;;;;4.64;100.00;100381.83;1636122;86;21011;-66
2021/12/02 08:17:59;;;;;;;31.87;19.62;;;;;;;4.63;100.00;100395.91;1637159;86;21082;-66
2021/12/02 08:20:28;;;;;;;30.20;18.50;;;;;;;4.64;100.00;100392.47;1625793;87;21060;-67
2021/12/02 08:22:55;;;;;;;34.18;18.55;;;;;;;4.66;100.00;100385.63;1610893;87;21083;-67
2021/12/02 08:25:23;;;;;;;28.32;17.77;;;;;;;4.69;100.00;100368.56;1613087;88;21059;-67
2021/12/02 08:27:51;;;;;;;31.62;19.12;;;;;;;4.67;100.00;100372.86;1629916;87;21080;-66
2021/12/02 08:30:23;;;;;;;30.40;18.05;;;;;;;4.73;100.00;100361.69;1635069;87;21219;-66
2021/12/02 08:32:50;;;;;;;30.15;18.17;;;;;;;4.70;100.00;100368.12;1630346;87;21028;-66
2021/12/02 08:35:18;;;;;;;27.15;17.42;;;;;;;4.56;100.00;100368.00;1629400;86;21056;-66
2021/12/02 08:37:48;;;;;;;31.33;18.30;;;;;;;4.55;100.00;100356.11;1630065;87;21134;-66
2021/12/02 08:40:19;;;;;;;29.87;18.02;;;;;;;4.62;100.00;100341.51;1631834;87;22059;-67
2021/12/02 08:42:47;;;;;;;27.90;16.40;;;;;;;4.71;100.00;100332.84;1631851;86;22480;-66
2021/12/02 08:45:16;;;;;;;30.60;16.30;;;;;;;4.78;100.00;100336.46;1609456;87;21072;-67
2021/12/02 08:47:44;;;;;;;23.95;15.75;;;;;;;4.90;100.00;100343.00;1628405;87;21056;-67
2021/12/02 08:50:17;;;;;;;26.57;15.78;;;;;;;4.92;100.00;100333.59;1630382;87;21016;-67
2021/12/02 08:52:47;;;;;;;23.90;15.38;;;;;;;4.94;100.00;100339.50;1637957;87;21003;-67
2021/12/02 08:55:15;;;;;;;24.35;16.02;;;;;;;4.93;100.00;100339.11;1611649;89;21058;-67
2021/12/02 08:57:43;;;;;;;25.10;14.93;;;;;;;5.12;100.00;100336.95;1609819;88;21131;-67
2021/12/02 09:00:13;;;;;;;21.60;13.95;;;;;;;5.03;100.00;100329.53;1625749;87;21088;-67
2021/12/02 09:02:40;;;;;;;22.98;14.85;;;;;;;4.83;100.00;100329.17;1612169;87;20990;-66
2021/12/02 09:05:08;;;;;;;21.73;14.45;;;;;;;4.77;100.00;100325.05;1626659;87;21058;-67
2021/12/02 09:07:37;;;;;;;21.40;14.35;;;;;;;4.77;100.00;100330.15;1607403;88;21547;-67
2021/12/02 09:10:08;;;;;;;23.02;15.23;;;;;;;4.84;100.00;100326.56;1596732;89;21206;-67
2021/12/02 09:12:35;;;;;;;22.13;14.10;;;;;;;4.96;100.00;100315.23;1601314;88;21043;-67
2021/12/02 09:15:07;;;;;;;22.75;14.20;;;;;;;5.01;100.00;100317.25;1639556;87;21586;-67
2021/12/02 09:17:36;;;;;;;23.38;14.23;;;;;;;5.08;100.00;100311.11;1635584;87;21542;-67
2021/12/02 09:20:09;;;;;;;24.27;15.08;;;;;;;5.08;100.00;100313.66;1633710;87;21058;-67
2021/12/02 09:22:37;;;;;;;23.60;15.08;;;;;;;4.99;100.00;100310.91;1636794;86;21097;-67
2021/12/02 09:25:06;;;;;;;20.32;13.58;;;;;;;5.12;100.00;100304.23;1639150;86;21061;-67
2021/12/02 09:27:35;;;;;;;19.15;12.73;;;;;;;4.99;100.00;100302.42;1639091;86;21031;-67
2021/12/02 09:30:05;;;;;;;21.33;13.48;;;;;;;4.96;100.00;100293.55;1636063;87;21561;-67
2021/12/02 09:32:33;;;;;;;20.57;12.82;;;;;;;5.01;100.00;100294.30;1638820;87;21039;-67
2021/12/02 09:35:02;;;;;;;18.50;12.43;;;;;;;5.10;100.00;100284.30;1643251;87;21103;-67
2021/12/02 09:37:29;;;;;;;20.32;13.20;;;;;;;5.15;100.00;100278.62;1597934;87;21066;-67
2021/12/02 09:39:58;;;;;;;20.97;13.28;;;;;;;5.20;100.00;100284.45;1635591;87;21093;-66
2021/12/02 09:42:26;;;;;;;20.70;14.18;;;;;;;5.31;100.00;100272.27;1637665;87;21097;-67
2021/12/02 09:45:01;;;;;;;19.52;12.82;;;;;;;5.43;100.00;100260.87;1640949;87;21063;-67
2021/12/02 09:47:33;;;;;;;18.35;12.55;;;;;;;5.60;100.00;100256.61;1636440;87;21075;-67
2021/12/02 09:50:05;;;;;;;16.52;11.30;;;;;;;5.72;100.00;100260.55;1636807;87;21550;-67
2021/12/02 09:52:33;;;;;;;19.52;12.73;;;;;;;5.69;100.00;100248.67;1641742;87;21089;-67
2021/12/02 09:55:03;;;;;;;17.02;11.48;;;;;;;5.65;100.00;100245.81;1637032;87;21624;-67
2021/12/02 09:57:32;;;;;;;17.52;11.60;;;;;;;5.67;100.00;100247.88;1637965;87;21066;-67
2021/12/02 09:59:55;;;;;;;17.62;12.25;;;;;;;5.72;100.00;100246.50;1636279;87;21126;-67
2021/12/02 10:02:23;;;;;;;17.50;11.75;;;;;;;5.77;100.00;100236.52;1634174;87;21106;-67
2021/12/02 10:04:55;;;;;;;15.60;11.28;;;;;;;5.89;100.00;100235.34;1636122;87;21031;-66
2021/12/02 10:07:46;;;;;;;21.52;11.88;;;;;;;5.80;100.00;100227.51;1637491;87;21077;-67
2021/12/02 10:10:03;;;;;;;17.95;12.33;;;;;;;5.73;100.00;100228.55;1637412;87;21114;-67
2021/12/02 10:12:25;;;;;;;17.00;11.57;;;;;;;5.74;100.00;100227.69;1635698;87;21179;-67
2021/12/02 10:14:58;;;;;;;17.27;10.98;;;;;;;5.76;100.00;100220.81;1637399;87;21089;-67
2021/12/02 10:17:36;;;;;;;15.32;10.80;;;;;;;5.70;100.00;100213.33;1641136;87;21039;-67
2021/12/02 10:20:27;;;;;;;18.12;11.68;;;;;;;5.77;100.00;100207.59;1618866;87;21080;-67
2021/12/02 10:23:16;;;;;;;17.52;11.57;;;;;;;5.83;100.00;100200.58;1637694;87;21131;-66
2021/12/02 10:25:50;;;;;;;16.48;11.93;;;;;;;5.90;100.00;100194.02;1618205;87;21058;-67
2021/12/02 10:28:19;;;;;;;14.20;10.53;;;;;;;5.89;100.00;100191.08;1637429;87;21149;-67
2021/12/02 10:30:53;;;;;;;17.82;11.15;;;;;;;5.83;100.00;100185.26;1641537;87;21523;-66
2021/12/02 10:33:40;;;;;;;15.63;10.80;;;;;;;5.81;100.00;100178.08;1638635;87;21050;-67
2021/12/02 10:36:24;;;;;;;17.82;11.45;;;;;;;5.79;100.00;100176.02;1638184;87;21583;-67
2021/12/02 10:38:51;;;;;;;15.72;10.63;;;;;;;5.76;100.00;100171.46;1639810;86;21027;-67
2021/12/02 10:41:24;;;;;;;15.85;10.65;;;;;;;5.76;100.00;100171.46;1635435;86;21057;-67
2021/12/02 10:44:16;;;;;;;14.18;10.10;;;;;;;5.72;100.00;100168.16;1635858;87;21553;-66
2021/12/02 10:47:05;;;;;;;16.65;10.50;;;;;;;5.73;100.00;100162.59;1635838;87;21062;-67
2021/12/02 10:49:50;;;;;;;15.65;10.08;;;;;;;5.73;100.00;100162.59;1640671;87;21128;-67
2021/12/02 10:52:22;;;;;;;;;;;;;;;5.70;100.00;100156.32;1641218;87;21578;-67
2021/12/02 10:54:53;;;;;;;13.62;9.18;;;;;;;5.74;100.00;100157.45;1606411;89;20110;-67
2021/12/02 10:57:24;;;;;;;15.48;9.80;;;;;;;5.78;100.00;100155.65;1635479;87;21083;-67
2021/12/02 10:59:53;;;;;;;12.45;9.08;;;;;;;5.88;100.00;100147.24;1637763;87;21016;-67
2021/12/02 11:02:34;;;;;;;12.85;9.05;;;;;;;6.03;100.00;100140.42;1637091;87;21107;-67
2021/12/02 11:05:24;;;;;;;15.18;9.28;;;;;;;6.28;100.00;100140.47;1636146;87;21130;-67
2021/12/02 11:07:56;;;;;;;11.73;8.23;;;;;;;6.61;100.00;100133.88;1668635;85;21079;-66
2021/12/02 11:10:25;;;;;;;13.10;8.60;;;;;;;7.00;100.00;100130.83;1664568;86;21049;-67
2021/12/02 11:12:56;;;;;;;11.33;7.70;;;;;;;7.25;100.00;100124.83;1643124;87;21083;-67
2021/12/02 11:15:29;;;;;;;11.70;7.78;;;;;;;7.46;100.00;100118.92;1642497;87;21161;-67
2021/12/02 11:18:15;;;;;;;11.40;7.58;;;;;;;7.69;100.00;100119.32;1641936;87;21087;-67
2021/12/02 11:20:50;;;;;;;13.90;8.13;;;;;;;7.73;100.00;100118.77;1642762;87;21114;-67
2021/12/02 11:23:29;;;;;;;10.18;7.10;;;;;;;7.81;100.00;100112.89;1642104;86;21106;-67
2021/12/02 11:26:11;;;;;;;9.95;6.47;;;;;;;7.81;100.00;100105.20;1642388;87;21113;-67